Time;durP1;ratioP1;P1;durP2;ratioP2;P2;SDS_P1;SDS_P2;PMS_P1;PMS_P2;Temp;Humidity;BMP_temperature;BMP_pressure;BME280_temperature;BME280_humidity;BME280_pressure;Samples;Min_cycle;Max_cycle;Signal;HPM_P1;HPM_P2
2022/06/19 00:01:22;;;;;;;11.73;7.67;;;27.70;56.40;;;;;;5073551;28;20435;-73
2022/06/19 00:03:54;;;;;;;8.17;7.07;;;27.60;56.50;;;;;;5073436;28;20525;-72
2022/06/19 00:06:21;;;;;;;11.33;7.47;;;27.60;56.70;;;;;;5073497;28;20487;-73
2022/06/19 00:08:49;;;;;;;11.87;7.87;;;27.60;56.90;;;;;;5073375;28;20483;-73
2022/06/19 00:11:18;;;;;;;14.27;8.40;;;27.50;57.00;;;;;;5073101;28;20934;-73
2022/06/19 00:13:45;;;;;;;13.93;8.73;;;27.40;57.20;;;;;;5074575;28;20468;-72
2022/06/19 00:16:13;;;;;;;10.20;7.70;;;27.40;57.30;;;;;;5077576;28;20456;-72
2022/06/19 00:18:39;;;;;;;14.33;9.00;;;27.40;57.50;;;;;;5077428;28;20444;-73
2022/06/19 00:21:08;;;;;;;18.30;8.83;;;27.40;57.60;;;;;;5077398;28;20808;-74
2022/06/19 00:23:35;;;;;;;10.60;7.40;;;27.40;57.70;;;;;;5077257;28;20465;-72
2022/06/19 00:26:02;;;;;;;11.03;7.70;;;27.40;57.90;;;;;;5077307;28;20908;-73
2022/06/19 00:28:28;;;;;;;12.03;7.73;;;27.40;58.00;;;;;;5077194;28;20879;-73
2022/06/19 00:30:55;;;;;;;12.60;8.40;;;27.40;58.00;;;;;;5077203;28;20445;-72
2022/06/19 00:33:22;;;;;;;13.73;7.73;;;27.40;58.00;;;;;;5077167;28;20467;-74
2022/06/19 00:35:49;;;;;;;13.57;8.30;;;27.30;58.00;;;;;;5077096;28;20823;-73
2022/06/19 00:38:17;;;;;;;10.70;8.10;;;27.30;58.00;;;;;;5076770;28;20455;-73
2022/06/19 00:40:43;;;;;;;13.07;8.13;;;27.30;58.30;;;;;;5077000;28;20444;-73
2022/06/19 00:43:10;;;;;;;13.10;7.93;;;27.30;58.50;;;;;;5076771;28;20476;-72
2022/06/19 00:45:39;;;;;;;13.17;8.63;;;27.20;58.60;;;;;;5076901;28;20452;-73
2022/06/19 00:48:12;;;;;;;10.17;7.60;;;27.20;58.70;;;;;;5076888;28;20479;-73
2022/06/19 00:50:40;;;;;;;11.27;7.70;;;27.20;58.80;;;;;;5076936;28;20433;-70
2022/06/19 00:53:11;;;;;;;8.23;7.37;;;27.10;58.80;;;;;;5077105;28;20473;-70
2022/06/19 00:55:42;;;;;;;8.40;7.60;;;27.10;59.20;;;;;;5076838;28;20421;-70
2022/06/19 00:58:15;;;;;;;8.77;7.60;;;26.90;59.30;;;;;;5076946;28;20421;-70
2022/06/19 01:00:43;;;;;;;7.90;7.10;;;26.90;59.40;;;;;;5076677;28;20436;-70
2022/06/19 01:03:15;;;;;;;9.67;7.40;;;26.80;59.20;;;;;;5076070;28;20847;-70
2022/06/19 01:05:44;;;;;;;8.63;7.70;;;26.80;59.40;;;;;;5076575;28;20437;-70
2022/06/19 01:08:12;;;;;;;11.80;8.57;;;26.70;59.70;;;;;;5076033;28;20480;-70
2022/06/19 01:10:43;;;;;;;9.90;7.80;;;26.60;59.90;;;;;;5076451;28;20502;-70
2022/06/19 01:13:12;;;;;;;14.90;7.93;;;26.60;60.00;;;;;;5076239;28;20460;-70
2022/06/19 01:15:40;;;;;;;13.37;7.77;;;26.50;60.20;;;;;;5076322;28;20453;-70
2022/06/19 01:18:09;;;;;;;8.47;7.67;;;26.40;60.50;;;;;;5076043;28;20444;-70
2022/06/19 01:20:38;;;;;;;8.70;7.13;;;26.40;60.70;;;;;;5076297;28;20447;-70
2022/06/19 01:23:13;;;;;;;11.87;7.50;;;26.40;61.00;;;;;;5076065;28;20806;-70
2022/06/19 01:25:43;;;;;;;6.87;6.20;;;26.30;61.10;;;;;;5074779;28;20785;-70
2022/06/19 01:30:59;;;;;;;8.40;7.57;;;26.20;61.60;;;;;;5076132;28;20404;-70
2022/06/19 01:33:31;;;;;;;11.60;7.43;;;26.10;61.90;;;;;;5075851;28;20457;-70
2022/06/19 01:35:59;;;;;;;8.87;7.20;;;26.10;62.50;;;;;;5075859;28;20536;-70
2022/06/19 01:38:27;;;;;;;11.23;7.40;;;26.10;63.00;;;;;;5076730;28;20785;-70
2022/06/19 01:41:00;;;;;;;9.37;7.10;;;26.00;62.80;;;;;;5076009;28;20440;-70
2022/06/19 01:43:27;;;;;;;6.77;5.40;;;25.90;62.50;;;;;;5075803;28;20464;-70
2022/06/19 01:45:56;;;;;;;7.13;6.43;;;25.80;63.10;;;;;;5075954;28;20445;-70
2022/06/19 01:48:27;;;;;;;6.93;6.30;;;25.80;63.60;;;;;;5075786;28;20487;-70
2022/06/19 01:50:56;;;;;;;7.53;6.80;;;25.80;63.80;;;;;;5075704;28;20483;-71
2022/06/19 01:53:27;;;;;;;6.97;6.37;;;25.70;63.60;;;;;;5075055;28;20950;-71
2022/06/19 01:55:55;;;;;;;8.53;7.60;;;25.70;63.90;;;;;;5075946;28;20425;-70
2022/06/19 01:58:24;;;;;;;6.50;5.60;;;25.60;63.90;;;;;;5075573;28;20463;-70
2022/06/19 02:00:52;;;;;;;7.50;6.17;;;25.50;64.00;;;;;;5075707;28;20449;-70
2022/06/19 02:03:25;;;;;;;7.07;6.47;;;25.40;65.10;;;;;;5075414;28;20479;-70
2022/06/19 02:05:52;;;;;;;9.80;6.10;;;25.30;66.20;;;;;;5075243;28;20431;-70
2022/06/19 02:08:20;;;;;;;9.10;5.87;;;25.30;66.60;;;;;;5075457;28;20484;-70
2022/06/19 02:10:47;;;;;;;8.03;5.10;;;25.20;67.00;;;;;;5075512;28;20451;-70
2022/06/19 02:13:17;;;;;;;5.10;4.60;;;25.10;67.70;;;;;;5075411;28;20468;-70
2022/06/19 02:15:46;;;;;;;4.80;4.30;;;25.00;68.30;;;;;;5075314;28;20820;-70
2022/06/19 02:18:19;;;;;;;6.53;4.60;;;25.00;68.60;;;;;;5075486;28;20451;-70
2022/06/19 02:20:46;;;;;;;6.20;4.10;;;24.90;68.60;;;;;;5075353;28;20433;-70
2022/06/19 02:23:13;;;;;;;4.87;4.17;;;24.90;68.90;;;;;;5075495;28;20460;-70
2022/06/19 02:25:44;;;;;;;6.63;4.30;;;24.70;69.00;;;;;;5075560;28;20445;-70
2022/06/19 02:28:13;;;;;;;6.33;3.93;;;24.60;69.30;;;;;;5075873;28;20467;-70
2022/06/19 02:30:41;;;;;;;6.40;3.60;;;24.50;69.50;;;;;;5076067;28;20441;-70
2022/06/19 02:33:13;;;;;;;4.40;2.77;;;24.30;69.70;;;;;;5076634;28;20464;-70
2022/06/19 02:35:40;;;;;;;7.30;3.37;;;24.10;70.20;;;;;;5075429;28;20798;-70
2022/06/19 02:38:08;;;;;;;7.27;2.80;;;24.00;70.50;;;;;;5074356;28;20938;-70
2022/06/19 02:40:41;;;;;;;10.40;3.03;;;23.70;69.50;;;;;;5075121;28;20445;-70
2022/06/19 02:43:12;;;;;;;3.83;2.40;;;23.60;69.40;;;;;;5074776;28;20472;-70
2022/06/19 02:45:41;;;;;;;5.73;2.50;;;23.50;67.90;;;;;;5074943;28;20444;-70
2022/06/19 02:48:15;;;;;;;3.67;2.27;;;23.50;66.90;;;;;;5075046;28;20497;-70
2022/06/19 02:50:42;;;;;;;3.90;2.03;;;23.50;66.00;;;;;;5074597;28;20437;-70
2022/06/19 02:53:09;;;;;;;5.00;2.27;;;23.30;66.70;;;;;;5074273;28;20575;-70
2022/06/19 02:55:36;;;;;;;5.50;2.83;;;23.10;66.80;;;;;;5074527;28;20471;-70
2022/06/19 02:58:03;;;;;;;7.67;1.80;;;23.10;68.30;;;;;;5074399;28;20440;-70
2022/06/19 03:00:30;;;;;;;4.30;2.40;;;23.20;66.80;;;;;;5074046;28;20953;-70
2022/06/19 03:03:01;;;;;;;5.67;2.50;;;23.10;66.00;;;;;;5074248;28;20468;-70
2022/06/19 03:05:30;;;;;;;5.03;2.13;;;23.00;66.00;;;;;;5074213;28;20449;-70
2022/06/19 03:07:56;;;;;;;4.43;2.50;;;22.90;66.40;;;;;;5074097;28;20503;-70
2022/06/19 03:10:23;;;;;;;4.10;2.03;;;22.90;65.90;;;;;;5073796;28;20454;-70
2022/06/19 03:12:50;;;;;;;6.33;2.30;;;22.70;66.10;;;;;;5073566;28;20476;-70
2022/06/19 03:15:18;;;;;;;4.37;2.30;;;22.60;66.30;;;;;;5073891;28;20444;-70
2022/06/19 03:17:45;;;;;;;6.03;2.67;;;22.40;66.40;;;;;;5073906;28;20461;-70
2022/06/19 03:20:17;;;;;;;5.60;2.80;;;22.30;66.80;;;;;;5073632;28;20949;-70
2022/06/19 03:22:44;;;;;;;8.00;2.47;;;22.20;66.30;;;;;;5073468;28;20471;-70
2022/06/19 03:25:11;;;;;;;4.17;2.23;;;22.10;65.90;;;;;;5073897;28;20452;-70
2022/06/19 03:27:38;;;;;;;5.80;2.60;;;21.90;66.30;;;;;;5073680;28;20448;-70
2022/06/19 03:30:07;;;;;;;5.90;2.40;;;21.80;67.10;;;;;;5073739;28;20445;-70
2022/06/19 03:32:33;;;;;;;7.40;2.40;;;21.70;67.40;;;;;;5073603;28;20468;-70
2022/06/19 03:35:00;;;;;;;8.30;2.50;;;21.60;66.90;;;;;;5073824;28;20445;-70
2022/06/19 03:37:28;;;;;;;6.47;2.20;;;21.60;66.90;;;;;;5073964;28;20444;-70
2022/06/19 03:39:55;;;;;;;15.90;2.80;;;21.50;66.80;;;;;;5073701;28;20448;-70
2022/06/19 03:42:23;;;;;;;7.77;2.97;;;21.30;67.20;;;;;;5073741;28;20551;-70
2022/06/19 03:44:50;;;;;;;8.43;2.70;;;21.20;67.10;;;;;;5073667;28;20440;-70
2022/06/19 03:47:21;;;;;;;9.33;2.33;;;21.10;67.60;;;;;;5073344;28;20440;-70
2022/06/19 03:49:48;;;;;;;11.90;2.77;;;21.00;67.20;;;;;;5072867;28;20464;-70
2022/06/19 03:52:14;;;;;;;9.57;3.07;;;21.00;67.30;;;;;;5072988;28;20999;-70
2022/06/19 03:54:43;;;;;;;7.27;2.20;;;20.90;66.60;;;;;;5073352;28;20472;-70
2022/06/19 03:57:11;;;;;;;5.70;2.27;;;20.80;66.30;;;;;;5073041;28;20452;-70
2022/06/19 03:59:38;;;;;;;9.33;3.13;;;20.80;66.80;;;;;;5073335;28;20449;-70
2022/06/19 04:02:08;;;;;;;9.50;2.30;;;20.80;66.60;;;;;;5072880;28;20479;-70
2022/06/19 04:04:35;;;;;;;10.60;2.47;;;20.70;65.60;;;;;;5073102;28;20448;-70
2022/06/19 04:07:02;;;;;;;8.97;2.90;;;20.60;65.60;;;;;;5073451;28;20474;-70
2022/06/19 04:09:29;;;;;;;6.70;2.30;;;20.60;64.70;;;;;;5073362;28;20484;-70
2022/06/19 04:11:57;;;;;;;10.23;2.60;;;20.60;64.30;;;;;;5073278;28;20456;-70
2022/06/19 04:14:24;;;;;;;9.17;2.20;;;20.50;63.50;;;;;;5072888;28;20992;-70
2022/06/19 04:16:50;;;;;;;6.97;2.23;;;20.50;63.50;;;;;;5073280;28;20440;-70
2022/06/19 04:19:17;;;;;;;11.20;2.50;;;20.50;62.90;;;;;;5073380;28;20796;-70
2022/06/19 04:21:46;;;;;;;6.00;2.23;;;20.50;62.00;;;;;;5073355;28;20452;-70
2022/06/19 04:24:17;;;;;;;8.10;2.93;;;20.40;60.90;;;;;;5072954;28;20942;-70
2022/06/19 04:26:44;;;;;;;8.93;1.90;;;20.40;61.20;;;;;;5073299;28;20796;-70
2022/06/19 04:29:13;;;;;;;8.23;2.10;;;20.40;60.60;;;;;;5072846;28;20483;-70
2022/06/19 04:31:40;;;;;;;7.13;2.17;;;20.40;61.00;;;;;;5073151;28;20448;-70
2022/06/19 04:34:06;;;;;;;9.37;2.40;;;20.50;59.90;;;;;;5073158;28;20464;-70
2022/06/19 04:36:33;;;;;;;7.93;2.40;;;20.60;59.10;;;;;;5073060;28;20818;-70
2022/06/19 04:39:00;;;;;;;8.37;2.20;;;20.60;59.80;;;;;;5072978;28;20452;-70
2022/06/19 04:41:31;;;;;;;10.47;2.30;;;20.70;59.00;;;;;;5072974;28;20809;-70
2022/06/19 04:43:59;;;;;;;7.20;2.60;;;20.70;59.10;;;;;;5073981;28;20475;-70
2022/06/19 04:46:27;;;;;;;8.83;2.97;;;20.90;59.30;;;;;;5073334;28;20444;-73
2022/06/19 04:48:54;;;;;;;11.20;2.13;;;21.00;58.40;;;;;;5072863;28;21017;-73
2022/06/19 04:51:21;;;;;;;8.63;2.40;;;21.10;59.80;;;;;;5073143;28;20448;-71
2022/06/19 04:53:48;;;;;;;10.27;2.40;;;21.30;58.90;;;;;;5072595;28;20511;-71
2022/06/19 04:56:18;;;;;;;3.90;1.80;;;21.40;58.10;;;;;;5072933;28;20444;-71
2022/06/19 04:58:45;;;;;;;9.37;2.60;;;21.50;57.00;;;;;;5073037;28;20459;-71
2022/06/19 05:01:17;;;;;;;6.43;2.53;;;21.50;56.30;;;;;;5076426;28;20459;-71
2022/06/19 05:03:45;;;;;;;7.10;2.30;;;21.40;56.90;;;;;;5076655;28;20500;-71
2022/06/19 05:06:12;;;;;;;8.53;2.90;;;21.40;57.40;;;;;;5076866;28;20451;-71
2022/06/19 05:08:38;;;;;;;7.07;2.13;;;21.50;56.70;;;;;;5076805;28;20480;-71
2022/06/19 05:11:05;;;;;;;8.60;2.33;;;21.50;55.20;;;;;;5077826;28;20453;-71
2022/06/19 05:13:32;;;;;;;8.70;2.90;;;21.50;54.60;;;;;;5078447;28;20468;-71
2022/06/19 05:16:05;;;;;;;7.33;2.43;;;21.50;55.50;;;;;;5079309;28;21028;-71
2022/06/19 05:18:32;;;;;;;5.97;2.53;;;21.50;54.80;;;;;;5076686;28;20445;-71
2022/06/19 05:21:02;;;;;;;8.13;2.20;;;21.60;55.00;;;;;;5076276;28;20444;-71
2022/06/19 05:23:29;;;;;;;9.23;2.20;;;21.60;53.80;;;;;;5076126;28;20468;-71
2022/06/19 05:25:59;;;;;;;9.80;3.37;;;21.70;53.90;;;;;;5076276;28;20452;-71
2022/06/19 05:28:26;;;;;;;9.50;2.30;;;21.70;53.20;;;;;;5076120;28;20433;-71
2022/06/19 05:30:53;;;;;;;7.17;2.20;;;21.80;53.70;;;;;;5075783;28;20448;-71
2022/06/19 05:33:20;;;;;;;7.77;2.27;;;21.80;52.20;;;;;;5076002;28;20541;-71
2022/06/19 05:35:46;;;;;;;8.87;2.17;;;21.80;52.50;;;;;;5075881;28;20448;-71
2022/06/19 05:38:15;;;;;;;8.27;2.10;;;21.90;53.80;;;;;;5075662;28;20945;-71
2022/06/19 05:40:42;;;;;;;9.10;2.53;;;21.90;53.00;;;;;;5075925;28;20444;-71
2022/06/19 05:43:09;;;;;;;6.73;2.00;;;22.00;52.70;;;;;;5075743;28;20476;-71
2022/06/19 05:45:36;;;;;;;15.33;3.20;;;22.10;53.40;;;;;;5075566;28;20961;-71
2022/06/19 05:48:03;;;;;;;7.13;2.20;;;22.20;53.60;;;;;;5075648;28;20445;-71
2022/06/19 05:50:30;;;;;;;7.00;2.00;;;22.40;53.60;;;;;;5075794;28;20481;-71
2022/06/19 05:52:57;;;;;;;8.23;2.70;;;22.40;54.80;;;;;;5075359;28;20479;-71
2022/06/19 05:55:25;;;;;;;4.57;1.63;;;22.50;54.00;;;;;;5075314;28;20456;-71
2022/06/19 05:57:52;;;;;;;5.20;2.10;;;22.60;53.80;;;;;;5075381;28;21020;-71
2022/06/19 06:00:19;;;;;;;5.83;2.00;;;22.70;52.90;;;;;;5076075;28;20460;-70
2022/06/19 06:02:46;;;;;;;7.10;2.17;;;22.80;53.40;;;;;;5075225;28;20469;-71
2022/06/19 06:05:12;;;;;;;8.03;2.33;;;22.90;52.40;;;;;;5075654;28;20463;-71
2022/06/19 06:07:39;;;;;;;12.57;3.37;;;23.00;52.80;;;;;;5075723;28;20463;-71
2022/06/19 06:10:07;;;;;;;4.70;2.07;;;23.10;52.20;;;;;;5076844;28;20571;-70
2022/06/19 06:12:35;;;;;;;6.00;2.70;;;23.20;53.60;;;;;;5075212;28;20465;-70
2022/06/19 06:15:02;;;;;;;8.03;2.53;;;23.50;55.50;;;;;;5076540;28;20447;-69
2022/06/19 06:17:29;;;;;;;6.73;2.67;;;23.80;54.10;;;;;;5075515;28;20441;-69
2022/06/19 06:19:55;;;;;;;8.23;2.33;;;24.10;52.90;;;;;;5075377;28;20942;-70
2022/06/19 06:22:22;;;;;;;5.83;2.00;;;24.40;51.60;;;;;;5075290;28;20464;-70
2022/06/19 06:24:49;;;;;;;9.27;2.57;;;24.70;50.70;;;;;;5075140;28;20444;-69
2022/06/19 06:27:16;;;;;;;7.43;2.87;;;25.00;49.90;;;;;;5075158;28;20456;-70
2022/06/19 06:29:44;;;;;;;5.83;2.47;;;25.30;49.20;;;;;;5075122;28;20464;-70
2022/06/19 06:32:10;;;;;;;9.37;2.70;;;25.50;48.40;;;;;;5074834;28;20460;-70
2022/06/19 06:34:37;;;;;;;9.93;2.80;;;25.70;47.90;;;;;;5074904;28;20444;-70
2022/06/19 06:37:04;;;;;;;5.53;2.47;;;25.90;47.30;;;;;;5075518;28;20444;-71
2022/06/19 06:39:31;;;;;;;11.07;2.87;;;26.10;46.70;;;;;;5074871;28;20539;-71
2022/06/19 06:41:58;;;;;;;8.73;2.80;;;26.30;46.20;;;;;;5074730;28;20447;-71
2022/06/19 06:44:25;;;;;;;6.47;2.60;;;26.50;44.70;;;;;;5074693;28;20445;-71
2022/06/19 06:46:53;;;;;;;5.53;2.07;;;26.60;44.50;;;;;;5074672;28;20480;-70
2022/06/19 06:49:20;;;;;;;7.40;2.23;;;26.70;44.20;;;;;;5074618;28;20601;-70
2022/06/19 06:51:46;;;;;;;8.40;2.70;;;26.80;44.00;;;;;;5074653;28;20440;-70
2022/06/19 06:54:13;;;;;;;7.63;2.90;;;26.90;44.00;;;;;;5074246;28;20452;-70
2022/06/19 06:56:40;;;;;;;9.73;2.70;;;27.00;43.90;;;;;;5074488;28;20532;-69
2022/06/19 06:59:07;;;;;;;6.60;2.57;;;27.00;43.70;;;;;;5074245;28;20445;-69
2022/06/19 07:01:34;;;;;;;6.83;2.43;;;27.00;43.30;;;;;;5074609;28;20452;-69
2022/06/19 07:04:02;;;;;;;7.47;2.63;;;27.00;43.00;;;;;;5074244;28;20479;-69
2022/06/19 07:06:32;;;;;;;6.20;2.60;;;26.90;43.10;;;;;;5074590;28;20452;-69
2022/06/19 07:08:59;;;;;;;14.57;3.53;;;26.80;42.90;;;;;;5074217;28;20490;-69
2022/06/19 07:11:28;;;;;;;6.83;2.90;;;26.70;43.50;;;;;;5074167;28;20447;-69
2022/06/19 07:13:55;;;;;;;12.57;3.07;;;26.60;43.90;;;;;;5074167;28;20464;-69
2022/06/19 07:16:22;;;;;;;19.20;3.97;;;26.30;43.90;;;;;;5074158;28;20449;-69
2022/06/19 07:18:49;;;;;;;8.70;3.03;;;26.20;44.30;;;;;;5073893;28;20938;-68
2022/06/19 07:21:17;;;;;;;6.60;2.40;;;25.90;44.00;;;;;;5073825;28;20456;-68
2022/06/19 07:23:44;;;;;;;7.20;2.43;;;25.50;44.60;;;;;;5073996;28;20556;-67
2022/06/19 07:26:12;;;;;;;8.83;2.80;;;25.40;45.10;;;;;;5074097;28;20432;-68
2022/06/19 07:28:39;;;;;;;6.03;1.77;;;25.20;45.00;;;;;;5073966;28;20432;-67
2022/06/19 07:31:06;;;;;;;6.17;1.97;;;25.10;44.80;;;;;;5073900;28;20484;-70
2022/06/19 07:33:34;;;;;;;7.00;2.90;;;24.90;45.10;;;;;;5074126;28;20571;-71
2022/06/19 07:36:01;;;;;;;7.83;2.30;;;24.80;44.80;;;;;;5073731;28;20457;-72
2022/06/19 07:38:29;;;;;;;5.57;2.40;;;24.60;44.50;;;;;;5073959;28;20463;-72
2022/06/19 07:40:55;;;;;;;6.43;2.00;;;24.20;46.00;;;;;;5073914;28;20440;-72
2022/06/19 07:43:22;;;;;;;7.13;2.07;;;24.10;46.70;;;;;;5073732;28;20475;-70
2022/06/19 07:45:50;;;;;;;7.30;1.80;;;24.10;47.20;;;;;;5073852;28;20425;-70
2022/06/19 07:51:02;;;;;;;6.97;1.97;;;24.50;47.00;;;;;;5075703;28;20480;-71
2022/06/19 07:53:30;;;;;;;7.13;2.27;;;24.90;46.50;;;;;;5075054;28;20485;-70
2022/06/19 07:55:57;;;;;;;6.63;2.10;;;25.20;45.60;;;;;;5076083;28;20432;-71
2022/06/19 07:58:23;;;;;;;5.97;2.40;;;25.50;44.60;;;;;;5073724;28;20453;-71
2022/06/19 08:00:50;;;;;;;4.23;1.73;;;25.60;44.60;;;;;;5073609;28;20449;-70
2022/06/19 08:03:17;;;;;;;6.63;2.37;;;25.70;43.90;;;;;;5073411;28;20468;-70
2022/06/19 08:05:46;;;;;;;7.23;2.10;;;25.90;44.10;;;;;;5073274;28;20440;-70
2022/06/19 08:08:26;;;;;;;6.00;2.13;;;26.10;43.80;;;;;;5073162;28;20444;-71
2022/06/19 08:10:56;;;;;;;6.00;2.10;;;26.30;43.50;;;;;;5073243;28;20460;-70
2022/06/19 08:13:24;;;;;;;6.30;2.00;;;26.40;43.40;;;;;;5072851;28;20464;-70
2022/06/19 08:15:53;;;;;;;6.77;2.20;;;26.60;42.70;;;;;;5073164;28;20440;-70
2022/06/19 08:18:20;;;;;;;7.00;2.20;;;26.80;42.50;;;;;;5073342;28;20436;-70
2022/06/19 08:20:47;;;;;;;6.73;2.77;;;27.10;42.10;;;;;;5073318;28;20447;-70
2022/06/19 08:23:14;;;;;;;7.00;2.60;;;27.30;40.80;;;;;;5072833;28;20472;-70
2022/06/19 08:25:41;;;;;;;3.77;1.57;;;27.20;41.30;;;;;;5073091;28;20460;-70
2022/06/19 08:28:09;;;;;;;6.80;2.00;;;27.20;41.10;;;;;;5073333;28;20445;-71
2022/06/19 08:30:41;;;;;;;10.33;2.53;;;27.30;41.30;;;;;;5073060;28;20484;-70
2022/06/19 08:33:08;;;;;;;7.90;2.07;;;27.40;40.80;;;;;;5073315;28;20511;-70
2022/06/19 08:35:38;;;;;;;5.77;1.83;;;27.50;40.40;;;;;;5075570;28;20428;-70
2022/06/19 08:38:07;;;;;;;8.60;1.83;;;27.60;40.50;;;;;;5077095;28;20494;-71
2022/06/19 08:40:47;;;;;;;3.40;1.57;;;27.80;40.00;;;;;;5077104;28;20445;-71
2022/06/19 08:43:31;;;;;;;4.90;2.17;;;27.90;39.50;;;;;;5076955;28;20472;-70
2022/06/19 08:46:11;;;;;;;4.47;1.87;;;28.10;39.50;;;;;;5077058;28;20898;-70
2022/06/19 08:48:52;;;;;;;8.80;1.80;;;28.50;39.00;;;;;;5076946;28;20433;-71
2022/06/19 08:51:39;;;;;;;5.30;2.13;;;28.80;37.80;;;;;;5076720;28;20469;-71
2022/06/19 08:54:24;;;;;;;3.70;1.83;;;29.00;37.30;;;;;;5076641;28;20488;-70
2022/06/19 08:57:02;;;;;;;4.53;1.50;;;29.40;36.70;;;;;;5076791;28;20436;-71
2022/06/19 08:59:42;;;;;;;4.37;1.70;;;29.60;36.50;;;;;;5077120;28;20432;-71
2022/06/19 09:02:21;;;;;;;4.30;1.53;;;29.90;36.40;;;;;;5076268;28;21011;-70
2022/06/19 09:07:56;;;;;;;3.93;1.40;;;29.90;35.40;;;;;;5076803;28;20404;-71
2022/06/19 09:10:34;;;;;;;5.47;2.00;;;29.90;35.50;;;;;;5076531;28;20475;-72
2022/06/19 09:13:18;;;;;;;4.80;1.70;;;30.00;35.80;;;;;;5076598;28;20652;-70
2022/06/19 09:15:51;;;;;;;6.30;1.90;;;30.20;35.60;;;;;;5076663;28;20435;-70
2022/06/19 09:18:23;;;;;;;4.90;2.00;;;30.30;35.40;;;;;;5076254;28;20429;-71
2022/06/19 09:21:00;;;;;;;2.70;1.33;;;30.20;35.20;;;;;;5077255;28;20440;-71
2022/06/19 09:23:49;;;;;;;4.60;1.73;;;30.10;35.70;;;;;;5076256;28;20471;-70
2022/06/19 09:26:19;;;;;;;7.73;1.70;;;30.00;35.90;;;;;;5076306;28;20432;-71
2022/06/19 09:28:51;;;;;;;5.27;2.00;;;29.50;35.10;;;;;;5076246;28;20429;-71
2022/06/19 09:31:25;;;;;;;5.93;2.13;;;29.20;36.20;;;;;;5076132;28;20473;-71
2022/06/19 09:33:58;;;;;;;3.60;1.90;;;29.20;36.30;;;;;;5076066;28;20472;-70
2022/06/19 09:36:31;;;;;;;5.13;1.60;;;29.20;36.60;;;;;;5076139;28;20782;-70
2022/06/19 09:39:05;;;;;;;4.57;1.83;;;29.20;37.00;;;;;;5076803;28;20436;-70
2022/06/19 09:41:38;;;;;;;3.60;1.67;;;29.40;37.40;;;;;;5075440;28;20897;-70
2022/06/19 09:44:11;;;;;;;2.83;1.50;;;29.50;37.60;;;;;;5075531;28;20475;-69
2022/06/19 09:46:44;;;;;;;3.60;1.47;;;29.60;37.50;;;;;;5074705;28;20428;-70
2022/06/19 09:49:18;;;;;;;3.43;1.83;;;29.70;37.40;;;;;;5075900;28;20425;-70
2022/06/19 09:51:52;;;;;;;4.10;1.50;;;29.80;37.20;;;;;;5075811;28;20464;-70
2022/06/19 09:54:23;;;;;;;3.80;1.63;;;29.90;36.90;;;;;;5075310;28;20972;-69
2022/06/19 09:56:54;;;;;;;2.40;1.50;;;29.90;36.80;;;;;;5075475;28;20792;-71
2022/06/19 09:59:26;;;;;;;5.30;1.70;;;29.80;36.80;;;;;;5075678;28;20451;-71
2022/06/19 10:01:59;;;;;;;4.27;1.87;;;29.70;36.80;;;;;;5075337;28;20456;-69
2022/06/19 10:04:35;;;;;;;4.30;1.80;;;29.60;37.20;;;;;;5075327;28;20433;-69
2022/06/19 10:07:08;;;;;;;5.13;1.63;;;29.40;37.30;;;;;;5075467;28;20464;-70
2022/06/19 10:09:41;;;;;;;5.80;1.90;;;29.30;37.20;;;;;;5075335;28;20800;-70
2022/06/19 10:12:15;;;;;;;8.63;2.27;;;29.20;37.50;;;;;;5075147;28;20496;-69
2022/06/19 10:14:44;;;;;;;7.10;1.60;;;29.20;37.60;;;;;;5075451;28;20801;-71
2022/06/19 10:17:20;;;;;;;9.67;2.33;;;29.20;37.50;;;;;;5075303;28;20428;-70
2022/06/19 10:19:51;;;;;;;7.90;2.30;;;29.30;37.50;;;;;;5075257;28;20489;-71
2022/06/19 10:22:33;;;;;;;7.03;2.33;;;29.30;37.60;;;;;;5075629;28;20469;-70
2022/06/19 10:25:16;;;;;;;5.43;1.80;;;29.20;37.60;;;;;;5076158;28;20429;-70
2022/06/19 10:27:52;;;;;;;8.80;2.30;;;29.00;37.90;;;;;;5077053;28;20437;-71
2022/06/19 10:30:25;;;;;;;6.37;1.80;;;29.00;38.30;;;;;;5078065;28;20495;-69
2022/06/19 10:33:17;;;;;;;5.80;2.33;;;29.20;38.10;;;;;;5078924;28;20888;-70
2022/06/19 10:35:50;;;;;;;4.73;1.60;;;29.50;37.70;;;;;;5075627;28;20439;-70
2022/06/19 10:38:41;;;;;;;4.77;1.90;;;29.90;37.00;;;;;;5074869;28;20444;-71
2022/06/19 10:42:00;;;;;;;8.80;2.20;;;30.50;35.90;;;;;;5074671;28;20436;-71
2022/06/19 10:44:15;;;;;;;11.60;3.10;;;31.10;35.00;;;;;;5074248;28;20464;-68
2022/06/19 10:46:42;;;;;;;6.50;2.70;;;31.40;34.40;;;;;;5074705;28;20444;-68
2022/06/19 10:49:22;;;;;;;4.57;1.80;;;31.90;33.30;;;;;;5074610;28;20459;-68
2022/06/19 10:52:00;;;;;;;4.57;2.47;;;32.50;32.80;;;;;;5074248;28;20468;-68
2022/06/19 10:54:52;;;;;;;8.33;2.57;;;33.10;31.40;;;;;;5073740;28;20475;-68
2022/06/19 10:57:32;;;;;;;10.90;2.83;;;33.70;29.60;;;;;;5073898;28;20448;-68
2022/06/19 10:59:59;;;;;;;6.57;2.30;;;34.30;29.50;;;;;;5074345;28;20490;-68
2022/06/19 11:05:25;;;;;;;4.83;1.87;;;35.10;27.90;;;;;;5073952;28;20462;-68
2022/06/19 11:07:51;;;;;;;7.40;2.50;;;34.90;27.70;;;;;;5074218;28;20436;-67
2022/06/19 11:10:22;;;;;;;6.13;2.23;;;35.00;27.80;;;;;;5073990;28;20476;-68
2022/06/19 11:12:56;;;;;;;9.77;2.90;;;34.70;27.80;;;;;;5073847;28;20516;-68
2022/06/19 11:15:29;;;;;;;3.97;2.17;;;34.40;28.20;;;;;;5074104;28;20468;-68
2022/06/19 11:18:13;;;;;;;7.00;2.10;;;34.40;28.80;;;;;;5073609;28;20909;-68
2022/06/19 11:20:55;;;;;;;4.77;1.77;;;34.50;28.40;;;;;;5073786;28;20431;-68
2022/06/19 11:23:27;;;;;;;3.87;2.10;;;34.30;28.80;;;;;;5073898;28;20871;-68
2022/06/19 11:26:00;;;;;;;8.00;2.40;;;34.30;29.20;;;;;;5073955;28;20437;-68
2022/06/19 11:28:42;;;;;;;4.87;1.97;;;33.70;29.50;;;;;;5073953;28;20433;-68
2022/06/19 11:31:14;;;;;;;9.70;2.50;;;33.30;30.30;;;;;;5073694;28;20471;-68
2022/06/19 11:33:42;;;;;;;3.50;2.50;;;32.60;30.60;;;;;;5073659;28;20479;-69
2022/06/19 11:36:26;;;;;;;6.30;2.50;;;31.80;32.70;;;;;;5073672;28;20941;-68
2022/06/19 11:38:54;;;;;;;6.43;2.73;;;31.30;33.30;;;;;;5073999;28;20436;-68
2022/06/19 11:41:30;;;;;;;6.77;2.40;;;30.60;34.30;;;;;;5073429;28;20789;-68
2022/06/19 11:44:14;;;;;;;11.00;2.40;;;30.20;35.40;;;;;;5073483;28;20479;-68
2022/06/19 11:46:48;;;;;;;5.90;2.17;;;30.20;35.90;;;;;;5073488;28;20441;-67
2022/06/19 11:49:24;;;;;;;7.17;2.57;;;30.30;35.50;;;;;;5073342;28;20429;-67
2022/06/19 11:51:54;;;;;;;7.90;2.43;;;30.70;35.00;;;;;;5073298;28;20468;-68
2022/06/19 11:54:27;;;;;;;6.97;2.33;;;31.20;33.90;;;;;;5073099;28;20827;-67
2022/06/19 11:56:54;;;;;;;6.97;2.30;;;31.10;33.80;;;;;;5073536;28;20435;-67
2022/06/19 11:59:28;;;;;;;7.20;2.83;;;31.10;34.30;;;;;;5072953;28;20976;-67
2022/06/19 12:01:55;;;;;;;7.10;2.63;;;31.50;33.40;;;;;;5072927;28;20425;-68
2022/06/19 12:04:30;;;;;;;6.70;2.70;;;31.90;33.00;;;;;;5073309;28;20440;-67
2022/06/19 12:07:00;;;;;;;5.67;2.30;;;32.20;32.30;;;;;;5073290;28;20843;-67
2022/06/19 12:09:32;;;;;;;8.47;2.07;;;32.70;31.40;;;;;;5072384;28;20928;-67
2022/06/19 12:12:05;;;;;;;7.10;2.47;;;33.40;30.70;;;;;;5073231;28;20837;-68
2022/06/19 12:14:35;;;;;;;7.67;2.63;;;34.00;30.10;;;;;;5073117;28;20948;-67
2022/06/19 12:17:16;;;;;;;7.23;3.23;;;34.60;29.10;;;;;;5072905;28;20960;-67
2022/06/19 12:19:52;;;;;;;8.37;3.20;;;35.40;27.90;;;;;;5073065;28;20786;-67
2022/06/19 12:22:25;;;;;;;6.40;3.00;;;36.00;27.20;;;;;;5073268;28;20463;-68
2022/06/19 12:25:00;;;;;;;6.83;3.10;;;36.50;26.60;;;;;;5073456;28;20543;-68
2022/06/19 12:27:33;;;;;;;5.30;2.70;;;37.00;26.00;;;;;;5072851;28;20773;-68
2022/06/19 12:30:05;;;;;;;4.30;2.60;;;37.20;25.90;;;;;;5073327;28;20432;-68
2022/06/19 12:32:36;;;;;;;5.77;2.77;;;37.50;25.30;;;;;;5072582;28;20707;-68
2022/06/19 12:35:09;;;;;;;8.83;3.10;;;37.50;25.10;;;;;;5072993;28;20189;-68
2022/06/19 12:37:37;;;;;;;7.67;3.13;;;37.30;25.60;;;;;;5073174;28;20193;-68
2022/06/19 12:40:04;;;;;;;11.53;2.90;;;37.60;25.50;;;;;;5073178;28;20187;-68
2022/06/19 12:42:46;;;;;;;7.50;3.10;;;37.90;25.10;;;;;;5073007;28;20711;-68
2022/06/19 12:45:23;;;;;;;8.50;3.20;;;38.50;24.70;;;;;;5072915;28;20648;-68
2022/06/19 12:48:01;;;;;;;8.05;3.20;;;38.60;24.00;;;;;;5073037;28;20190;-68
2022/06/19 12:50:44;;;;;;;6.83;2.83;;;38.00;24.40;;;;;;5072936;28;20190;-68
2022/06/19 12:53:49;;;;;;;11.70;3.33;;;37.60;25.20;;;;;;5072656;28;20714;-68
2022/06/19 12:56:24;;;;;;;7.97;3.00;;;37.70;24.90;;;;;;5073041;28;20544;-68
2022/06/19 12:59:13;;;;;;;7.03;3.17;;;37.70;25.20;;;;;;5073410;28;20196;-68
2022/06/19 13:01:51;;;;;;;6.10;3.00;;;37.50;25.10;;;;;;5071515;28;20208;-68
2022/06/19 13:04:34;;;;;;;8.97;3.30;;;37.80;25.10;;;;;;5073528;28;20182;-68
2022/06/19 13:07:29;;;;;;;8.93;2.60;;;38.40;24.80;;;;;;5074023;28;20265;-68
2022/06/19 13:10:31;;;;;;;8.90;3.45;;;38.70;24.30;;;;;;5074701;28;20255;-68
2022/06/19 13:13:11;;;;;;;6.90;2.72;;;39.10;23.80;;;;;;5076140;28;20218;-68
2022/06/19 13:15:55;;;;;;;6.32;3.22;;;39.40;23.60;;;;;;5073356;28;20634;-68